createdAt,value
2019-06-10T00:00:41.825Z,0.00
2019-06-10T00:01:40.861Z,0.00
2019-06-10T00:02:41.420Z,0.00
2019-06-10T00:03:41.958Z,0.00
2019-06-10T00:04:41.575Z,0.00
2019-06-10T00:05:41.543Z,0.00
2019-06-10T00:06:41.537Z,0.00
2019-06-10T00:07:41.064Z,0.00
2019-06-10T00:08:41.230Z,0.00
2019-06-10T00:09:40.704Z,0.00
2019-06-10T00:10:41.766Z,0.00
2019-06-10T00:11:41.101Z,0.00
2019-06-10T00:12:41.824Z,0.00
2019-06-10T00:13:41.465Z,0.00
2019-06-10T00:14:41.647Z,0.00
2019-06-10T00:15:40.947Z,0.00
2019-06-10T00:16:41.581Z,0.00
2019-06-10T00:17:52.739Z,0.00
2019-06-10T00:18:43.006Z,0.00
2019-06-10T00:19:40.941Z,0.00
2019-06-10T00:20:40.869Z,0.00
2019-06-10T00:21:41.358Z,0.00
2019-06-10T00:22:40.911Z,0.00
2019-06-10T00:23:41.310Z,0.00
2019-06-10T00:24:40.900Z,0.00
2019-06-10T00:25:41.479Z,0.00
2019-06-10T00:26:41.298Z,0.00
2019-06-10T00:27:41.867Z,0.00
2019-06-10T00:28:40.647Z,0.00
2019-06-10T00:29:40.853Z,0.00
2019-06-10T00:30:41.087Z,0.00
2019-06-10T00:31:41.583Z,0.00
2019-06-10T00:32:41.231Z,0.00
2019-06-10T00:33:41.258Z,0.00
2019-06-10T00:34:41.705Z,0.00
2019-06-10T00:35:41.261Z,0.00
2019-06-10T00:36:41.416Z,0.00
2019-06-10T00:37:41.729Z,0.00
2019-06-10T00:38:41.158Z,0.00
2019-06-10T00:39:40.880Z,0.00
2019-06-10T00:40:41.692Z,0.00
2019-06-10T00:41:39.196Z,0.00
2019-06-10T00:42:41.623Z,0.00
2019-06-10T00:43:41.125Z,0.00
2019-06-10T00:44:41.495Z,0.00
2019-06-10T00:45:41.052Z,0.00
2019-06-10T00:46:40.820Z,0.00
2019-06-10T00:47:41.299Z,0.00
2019-06-10T00:48:40.982Z,0.00
2019-06-10T00:49:40.924Z,0.00
2019-06-10T00:50:41.401Z,0.00
2019-06-10T00:51:41.325Z,0.00
2019-06-10T00:52:42.186Z,0.00
2019-06-10T00:53:42.255Z,0.00
2019-06-10T00:54:41.574Z,0.00
2019-06-10T00:55:41.457Z,0.00
2019-06-10T00:56:41.229Z,0.00
2019-06-10T00:57:39.007Z,0.00
2019-06-10T00:58:40.831Z,0.00
2019-06-10T00:59:41.253Z,0.00
2019-06-10T01:00:41.214Z,0.00
2019-06-10T01:01:41.398Z,0.00
2019-06-10T01:02:41.061Z,0.00
2019-06-10T01:03:41.347Z,0.00
2019-06-10T01:04:40.758Z,0.00
2019-06-10T01:05:38.932Z,0.00
2019-06-10T01:06:38.914Z,0.00
2019-06-10T01:07:41.227Z,0.00
2019-06-10T01:08:40.563Z,0.00
2019-06-10T01:09:41.153Z,0.00
2019-06-10T01:10:38.864Z,0.00
2019-06-10T01:11:41.059Z,0.00
2019-06-10T01:12:40.690Z,0.00
2019-06-10T01:13:41.250Z,0.00
2019-06-10T01:14:41.029Z,0.00
2019-06-10T01:15:38.816Z,0.00
2019-06-10T01:16:41.025Z,0.00
2019-06-10T01:17:38.783Z,0.00
2019-06-10T01:18:41.448Z,0.00
2019-06-10T01:19:38.759Z,0.00
2019-06-10T01:20:41.013Z,0.00
2019-06-10T01:21:38.758Z,0.00
2019-06-10T01:22:40.908Z,0.00
2019-06-10T01:23:38.716Z,0.00
2019-06-10T01:24:40.724Z,0.00
2019-06-10T01:25:38.698Z,0.00
2019-06-10T01:26:41.063Z,0.00
2019-06-10T01:27:40.876Z,0.00
2019-06-10T01:28:40.907Z,0.00
2019-06-10T01:29:38.647Z,0.00
2019-06-10T01:30:41.009Z,0.00
2019-06-10T01:31:38.638Z,0.00
2019-06-10T01:32:38.652Z,0.00
2019-06-10T01:33:40.973Z,0.00
2019-06-10T01:34:38.592Z,0.00
2019-06-10T01:35:41.183Z,0.00
2019-06-10T01:36:40.509Z,0.00
2019-06-10T01:37:38.559Z,0.00
2019-06-10T01:38:40.821Z,0.00
2019-06-10T01:39:38.535Z,0.00
2019-06-10T01:40:38.529Z,0.00
2019-06-10T01:41:40.813Z,0.00
2019-06-10T01:42:38.503Z,0.00
2019-06-10T01:43:40.665Z,0.00
2019-06-10T01:44:38.479Z,0.00
2019-06-10T01:45:38.471Z,0.00
2019-06-10T01:46:40.923Z,0.00
2019-06-10T01:47:38.445Z,0.00
2019-06-10T01:48:47.027Z,0.00
2019-06-10T01:49:41.225Z,0.00
2019-06-10T01:50:40.512Z,0.00
2019-06-10T01:51:39.009Z,0.00
2019-06-10T01:52:38.403Z,0.00
2019-06-10T01:53:38.379Z,0.00
2019-06-10T01:54:38.383Z,0.00
2019-06-10T01:55:38.355Z,0.00
2019-06-10T01:56:40.710Z,0.00
2019-06-10T01:57:38.331Z,0.00
2019-06-10T01:58:40.528Z,0.00
2019-06-10T01:59:38.315Z,0.00
2019-06-10T02:00:38.317Z,0.00
2019-06-10T02:01:38.336Z,0.00
2019-06-10T02:02:38.301Z,0.00
2019-06-10T02:03:38.272Z,0.00
2019-06-10T02:04:41.010Z,0.00
2019-06-10T02:05:38.251Z,0.00
2019-06-10T02:06:40.507Z,0.00
2019-06-10T02:07:38.240Z,0.00
2019-06-10T02:08:38.207Z,0.00
2019-06-10T02:09:38.204Z,0.00
2019-06-10T02:10:38.188Z,0.00
2019-06-10T02:11:38.470Z,0.00
2019-06-10T02:12:38.168Z,0.00
2019-06-10T02:13:38.173Z,0.00
2019-06-10T02:14:38.156Z,0.00
2019-06-10T02:15:38.138Z,0.00
2019-06-10T02:16:38.119Z,0.00
2019-06-10T02:17:38.108Z,0.00
2019-06-10T02:18:38.100Z,0.00
2019-06-10T02:19:38.100Z,0.00
2019-06-10T02:20:38.080Z,0.00
2019-06-10T02:21:38.197Z,0.00
2019-06-10T02:22:38.072Z,0.00
2019-06-10T02:23:38.044Z,0.00
2019-06-10T02:24:38.033Z,0.00
2019-06-10T02:25:38.020Z,0.00
2019-06-10T02:26:38.016Z,0.00
2019-06-10T02:27:38.008Z,0.00
2019-06-10T02:28:37.992Z,0.00
2019-06-10T02:29:37.975Z,0.00
2019-06-10T02:30:46.157Z,0.00
2019-06-10T02:31:42.824Z,0.00
2019-06-10T02:32:38.225Z,0.00
2019-06-10T02:33:37.941Z,0.00
2019-06-10T02:34:50.712Z,0.00
2019-06-10T02:35:44.356Z,0.00
2019-06-10T02:36:38.896Z,0.00
2019-06-10T02:37:38.494Z,0.00
2019-06-10T02:38:39.561Z,0.00
2019-06-10T02:39:39.174Z,0.00
2019-06-10T02:40:37.856Z,0.00
2019-06-10T02:41:37.854Z,0.00
2019-06-10T02:42:37.827Z,0.00
2019-06-10T02:43:38.206Z,0.00
2019-06-10T02:44:38.021Z,0.00
2019-06-10T02:45:37.899Z,0.00
2019-06-10T02:46:37.789Z,0.00
2019-06-10T02:47:38.471Z,0.00
2019-06-10T02:48:37.761Z,0.00
2019-06-10T02:49:52.616Z,0.00
2019-06-10T02:50:38.752Z,0.00
2019-06-10T02:51:37.823Z,4.00
2019-06-10T02:52:38.677Z,4.00
2019-06-10T02:53:37.852Z,4.00
2019-06-10T02:54:37.711Z,0.00
2019-06-10T02:55:37.687Z,0.00
2019-06-10T02:56:37.689Z,4.00
2019-06-10T02:57:40.360Z,4.00
2019-06-10T02:58:39.398Z,0.00
2019-06-10T02:59:37.642Z,4.00
2019-06-10T03:00:44.592Z,4.00
2019-06-10T03:01:38.634Z,4.00
2019-06-10T03:02:37.609Z,4.00
2019-06-10T03:03:44.265Z,4.00
2019-06-10T03:04:38.668Z,4.00
2019-06-10T03:05:41.052Z,8.00
2019-06-10T03:06:40.174Z,4.00
2019-06-10T03:07:37.571Z,8.00
2019-06-10T03:08:37.596Z,8.00
2019-06-10T03:09:37.529Z,8.00
2019-06-10T03:10:37.537Z,8.00
2019-06-10T03:11:37.745Z,8.00
2019-06-10T03:12:37.514Z,8.00
2019-06-10T03:13:37.484Z,8.00
2019-06-10T03:14:37.482Z,12.00
2019-06-10T03:15:37.464Z,8.00
2019-06-10T03:16:37.452Z,12.00
2019-06-10T03:17:37.439Z,8.00
2019-06-10T03:18:37.440Z,12.00
2019-06-10T03:19:47.121Z,8.00
2019-06-10T03:20:38.404Z,12.00
2019-06-10T03:21:37.456Z,12.00
2019-06-10T03:22:37.384Z,12.00
2019-06-10T03:23:37.380Z,12.00
2019-06-10T03:24:37.376Z,12.00
2019-06-10T03:25:37.364Z,16.00
2019-06-10T03:26:37.340Z,12.00
2019-06-10T03:27:37.328Z,16.00
2019-06-10T03:28:37.323Z,12.00
2019-06-10T03:29:37.304Z,12.00
2019-06-10T03:30:47.795Z,16.00
2019-06-10T03:31:43.095Z,16.00
2019-06-10T03:32:42.553Z,20.00
2019-06-10T03:33:41.766Z,20.00
2019-06-10T03:34:46.057Z,20.00
2019-06-10T03:35:38.236Z,24.00
2019-06-10T03:36:37.236Z,28.00
2019-06-10T03:37:37.211Z,28.00
2019-06-10T03:38:37.268Z,32.00
2019-06-10T03:39:37.192Z,36.00
2019-06-10T03:40:37.180Z,40.00
2019-06-10T03:41:37.171Z,40.00
2019-06-10T03:42:37.195Z,44.00
2019-06-10T03:43:37.152Z,48.00
2019-06-10T03:44:37.136Z,48.00
2019-06-10T03:45:37.128Z,52.00
2019-06-10T03:46:37.111Z,52.00
2019-06-10T03:47:37.107Z,56.00
2019-06-10T03:48:37.112Z,60.00
2019-06-10T03:49:49.167Z,64.00
2019-06-10T03:50:38.068Z,64.00
2019-06-10T03:51:37.060Z,68.00
2019-06-10T03:52:37.048Z,64.00
2019-06-10T03:53:37.034Z,64.00
2019-06-10T03:54:37.056Z,60.00
2019-06-10T03:55:37.012Z,56.00
2019-06-10T03:56:37.005Z,52.00
2019-06-10T03:57:37.032Z,48.00
2019-06-10T03:58:36.976Z,48.00
2019-06-10T03:59:36.967Z,48.00
2019-06-10T04:00:37.224Z,48.00
2019-06-10T04:01:36.955Z,48.00
2019-06-10T04:02:36.931Z,48.00
2019-06-10T04:03:36.940Z,48.00
2019-06-10T04:04:36.913Z,52.00
2019-06-10T04:05:36.904Z,52.00
2019-06-10T04:06:36.892Z,56.00
2019-06-10T04:07:36.880Z,64.00
2019-06-10T04:08:36.868Z,68.00
2019-06-10T04:09:36.888Z,68.00
2019-06-10T04:10:36.864Z,68.00
2019-06-10T04:11:36.832Z,72.00
2019-06-10T04:12:36.823Z,72.00
2019-06-10T04:13:36.812Z,76.00
2019-06-10T04:14:36.799Z,76.00
2019-06-10T04:15:36.800Z,80.00
2019-06-10T04:16:36.782Z,88.00
2019-06-10T04:17:36.768Z,88.00
2019-06-10T04:18:36.764Z,96.00
2019-06-10T04:19:36.747Z,104.00
2019-06-10T04:20:36.752Z,108.00
2019-06-10T04:21:36.726Z,116.00
2019-06-10T04:22:36.712Z,124.00
2019-06-10T04:23:36.699Z,132.00
2019-06-10T04:24:36.704Z,140.00
2019-06-10T04:25:36.704Z,148.00
2019-06-10T04:26:36.685Z,160.00
2019-06-10T04:27:36.667Z,164.00
2019-06-10T04:28:36.647Z,172.00
2019-06-10T04:29:36.639Z,180.00
2019-06-10T04:30:36.619Z,192.00
2019-06-10T04:31:36.611Z,204.00
2019-06-10T04:32:36.623Z,212.00
2019-06-10T04:33:36.613Z,228.00
2019-06-10T04:34:36.580Z,244.00
2019-06-10T04:35:36.571Z,256.00
2019-06-10T04:36:36.556Z,264.00
2019-06-10T04:37:36.540Z,268.00
2019-06-10T04:38:36.544Z,264.00
2019-06-10T04:39:36.526Z,268.00
2019-06-10T04:40:36.508Z,276.00
2019-06-10T04:41:36.499Z,288.00
2019-06-10T04:42:36.496Z,300.00
2019-06-10T04:43:36.503Z,316.00
2019-06-10T04:44:36.470Z,328.00
2019-06-10T04:45:36.455Z,328.00
2019-06-10T04:46:36.440Z,320.00
2019-06-10T04:47:36.440Z,308.00
2019-06-10T04:48:36.420Z,300.00
2019-06-10T04:49:36.425Z,300.00
2019-06-10T04:50:42.551Z,308.00
2019-06-10T04:51:37.391Z,312.00
2019-06-10T04:52:36.379Z,332.00
2019-06-10T04:53:36.372Z,348.00
2019-06-10T04:54:36.375Z,348.00
2019-06-10T04:55:36.348Z,340.00
2019-06-10T04:56:36.328Z,336.00
2019-06-10T04:57:36.320Z,332.00
2019-06-10T04:58:36.312Z,348.00
2019-06-10T04:59:36.328Z,368.00
2019-06-10T05:00:36.326Z,396.00
2019-06-10T05:01:36.276Z,420.00
2019-06-10T05:02:36.267Z,444.00
2019-06-10T05:03:36.256Z,468.00
2019-06-10T05:04:36.245Z,488.00
2019-06-10T05:05:36.263Z,500.00
2019-06-10T05:06:36.220Z,512.00
2019-06-10T05:07:37.178Z,520.00
2019-06-10T05:08:36.199Z,532.00
2019-06-10T05:09:36.187Z,536.00
2019-06-10T05:10:36.175Z,544.00
2019-06-10T05:11:36.184Z,560.00
2019-06-10T05:12:36.151Z,568.00
2019-06-10T05:13:36.149Z,580.00
2019-06-10T05:14:36.132Z,584.00
2019-06-10T05:15:36.133Z,588.00
2019-06-10T05:16:36.214Z,592.00
2019-06-10T05:17:36.108Z,604.00
2019-06-10T05:18:36.089Z,616.00
2019-06-10T05:19:36.088Z,624.00
2019-06-10T05:20:51.064Z,616.00
2019-06-10T05:21:37.052Z,616.00
2019-06-10T05:22:36.062Z,608.00
2019-06-10T05:23:36.028Z,608.00
2019-06-10T05:24:36.020Z,612.00
2019-06-10T05:25:36.004Z,620.00
2019-06-10T05:26:36.016Z,620.00
2019-06-10T05:27:35.980Z,624.00
2019-06-10T05:28:35.976Z,636.00
2019-06-10T05:29:35.963Z,652.00
2019-06-10T05:30:35.956Z,664.00
2019-06-10T05:31:35.956Z,680.00
2019-06-10T05:32:35.923Z,692.00
2019-06-10T05:33:35.920Z,704.00
2019-06-10T05:34:35.907Z,720.00
2019-06-10T05:35:35.920Z,736.00
2019-06-10T05:36:35.904Z,744.00
2019-06-10T05:37:35.879Z,740.00
2019-06-10T05:38:35.868Z,740.00
2019-06-10T05:39:35.851Z,744.00
2019-06-10T05:40:35.844Z,760.00
2019-06-10T05:41:35.824Z,764.00
2019-06-10T05:42:36.237Z,760.00
2019-06-10T05:43:35.842Z,752.00
2019-06-10T05:44:35.796Z,736.00
2019-06-10T05:45:35.783Z,720.00
2019-06-10T05:46:35.775Z,692.00
2019-06-10T05:47:36.089Z,668.00
2019-06-10T05:48:35.752Z,648.00
2019-06-10T05:49:36.248Z,636.00
2019-06-10T05:50:35.740Z,636.00
2019-06-10T05:51:35.715Z,648.00
2019-06-10T05:52:35.707Z,656.00
2019-06-10T05:53:35.700Z,672.00
2019-06-10T05:54:35.692Z,684.00
2019-06-10T05:55:35.668Z,696.00
2019-06-10T05:56:35.806Z,704.00
2019-06-10T05:57:35.697Z,708.00
2019-06-10T05:58:36.031Z,720.00
2019-06-10T05:59:36.036Z,736.00
2019-06-10T06:00:35.719Z,760.00
2019-06-10T06:01:38.332Z,780.00
2019-06-10T06:02:35.593Z,804.00
2019-06-10T06:03:36.986Z,816.00
2019-06-10T06:04:36.084Z,824.00
2019-06-10T06:05:37.750Z,828.00
2019-06-10T06:06:35.559Z,824.00
2019-06-10T06:07:35.728Z,824.00
2019-06-10T06:08:35.622Z,824.00
2019-06-10T06:09:35.526Z,820.00
2019-06-10T06:10:36.043Z,832.00
2019-06-10T06:11:35.519Z,832.00
2019-06-10T06:12:35.851Z,828.00
2019-06-10T06:13:36.068Z,820.00
2019-06-10T06:14:36.151Z,828.00
2019-06-10T06:15:35.913Z,836.00
2019-06-10T06:16:36.255Z,852.00
2019-06-10T06:17:35.509Z,860.00
2019-06-10T06:18:36.492Z,864.00
2019-06-10T06:19:38.431Z,876.00
2019-06-10T06:20:35.978Z,896.00
2019-06-10T06:21:41.836Z,916.00
2019-06-10T06:22:36.364Z,936.00
2019-06-10T06:23:37.024Z,944.00
2019-06-10T06:24:35.728Z,948.00
2019-06-10T06:25:39.818Z,960.00
2019-06-10T06:26:38.356Z,960.00
2019-06-10T06:27:36.702Z,964.00
2019-06-10T06:28:36.128Z,976.00
2019-06-10T06:29:36.700Z,992.00
2019-06-10T06:30:36.415Z,1008.00
2019-06-10T06:31:36.483Z,1020.00
2019-06-10T06:32:36.930Z,1040.00
2019-06-10T06:33:37.974Z,1060.00
2019-06-10T06:34:37.395Z,1092.00
2019-06-10T06:35:42.358Z,1124.00
2019-06-10T06:36:37.919Z,1128.00
2019-06-10T06:37:37.727Z,1140.00
2019-06-10T06:38:36.796Z,1144.00
2019-06-10T06:39:36.708Z,1152.00
2019-06-10T06:40:37.196Z,1160.00
2019-06-10T06:41:37.148Z,1204.00
2019-06-10T06:42:36.700Z,1232.00
2019-06-10T06:43:38.921Z,1252.00
2019-06-10T06:44:37.804Z,1260.00
2019-06-10T06:45:37.376Z,1268.00
2019-06-10T06:46:37.862Z,1284.00
2019-06-10T06:47:37.115Z,1296.00
2019-06-10T06:48:38.391Z,1308.00
2019-06-10T06:49:36.701Z,1304.00
2019-06-10T06:50:36.206Z,1284.00
2019-06-10T06:51:47.384Z,1300.00
2019-06-10T06:53:09.274Z,1308.00
2019-06-10T06:53:45.397Z,1316.00
2019-06-10T06:54:36.546Z,1316.00
2019-06-10T06:55:36.505Z,1320.00
2019-06-10T06:56:37.410Z,1296.00
2019-06-10T06:57:36.777Z,1324.00
2019-06-10T06:58:36.899Z,1312.00
2019-06-10T06:59:36.974Z,1340.00
2019-06-10T07:00:49.181Z,1356.00
2019-06-10T07:01:37.668Z,1380.00
2019-06-10T07:02:36.940Z,1408.00
2019-06-10T07:03:38.119Z,1448.00
2019-06-10T07:04:35.878Z,1492.00
2019-06-10T07:05:35.949Z,1488.00
2019-06-10T07:06:36.020Z,1516.00
2019-06-10T07:07:36.004Z,1568.00
2019-06-10T07:08:36.233Z,1520.00
2019-06-10T07:09:36.181Z,1528.00
2019-06-10T07:10:36.116Z,1532.00
2019-06-10T07:11:37.381Z,1544.00
2019-06-10T07:12:36.383Z,1548.00
2019-06-10T07:13:37.121Z,1624.00
2019-06-10T07:14:37.293Z,1556.00
2019-06-10T07:15:37.616Z,1544.00
2019-06-10T07:16:37.767Z,1508.00
2019-06-10T07:17:37.398Z,1500.00
2019-06-10T07:18:40.933Z,1504.00
2019-06-10T07:19:39.235Z,1508.00
2019-06-10T07:20:37.620Z,1516.00
2019-06-10T07:21:51.469Z,1520.00
2019-06-10T07:22:36.974Z,1528.00
2019-06-10T07:23:38.869Z,1544.00
2019-06-10T07:24:38.761Z,1556.00
2019-06-10T07:25:37.348Z,1556.00
2019-06-10T07:26:41.368Z,1584.00
2019-06-10T07:27:37.556Z,1612.00
2019-06-10T07:28:37.441Z,1608.00
2019-06-10T07:29:38.508Z,1608.00
2019-06-10T07:30:38.821Z,1580.00
2019-06-10T07:31:36.947Z,1576.00
2019-06-10T07:32:37.357Z,1572.00
2019-06-10T07:33:37.510Z,1576.00
2019-06-10T07:34:36.738Z,1596.00
2019-06-10T07:35:35.734Z,1596.00
2019-06-10T07:36:35.614Z,1548.00
2019-06-10T07:37:35.027Z,1600.00
2019-06-10T07:38:37.246Z,1604.00
2019-06-10T07:39:36.475Z,1548.00
2019-06-10T07:40:36.184Z,1532.00
2019-06-10T07:41:35.740Z,1556.00
2019-06-10T07:42:34.909Z,1608.00
2019-06-10T07:43:38.221Z,1528.00
2019-06-10T07:44:36.332Z,1552.00
2019-06-10T07:45:37.783Z,1544.00
2019-06-10T07:46:36.064Z,1540.00
2019-06-10T07:47:35.324Z,1564.00
2019-06-10T07:48:35.284Z,1604.00
2019-06-10T07:49:35.383Z,1628.00
2019-06-10T07:50:35.006Z,1660.00
2019-06-10T07:51:35.833Z,1700.00
2019-06-10T07:52:35.854Z,1736.00
2019-06-10T07:53:36.502Z,1956.00
2019-06-10T07:54:34.795Z,2064.00
2019-06-10T07:55:34.992Z,1796.00
2019-06-10T07:56:38.941Z,1768.00
2019-06-10T07:57:36.067Z,1840.00
2019-06-10T07:58:36.443Z,1848.00
2019-06-10T07:59:35.392Z,1900.00
2019-06-10T08:00:36.284Z,1808.00
2019-06-10T08:01:35.089Z,1700.00
2019-06-10T08:02:35.553Z,1668.00
2019-06-10T08:03:35.311Z,1684.00
2019-06-10T08:04:35.230Z,1768.00
2019-06-10T08:05:34.648Z,1768.00
2019-06-10T08:06:35.162Z,1760.00
2019-06-10T08:07:35.231Z,3504.00
2019-06-10T08:08:34.832Z,3496.00
2019-06-10T08:09:35.639Z,3432.00
2019-06-10T08:10:34.995Z,3272.00
2019-06-10T08:11:35.162Z,3532.00
2019-06-10T08:12:35.102Z,3564.00
2019-06-10T08:13:35.197Z,3608.00
2019-06-10T08:14:35.345Z,3584.00
2019-06-10T08:15:35.457Z,3556.00
2019-06-10T08:16:34.098Z,3900.00
2019-06-10T08:17:34.090Z,4028.00
2019-06-10T08:18:44.697Z,3892.00
2019-06-10T08:19:38.732Z,4012.00
2019-06-10T08:20:35.050Z,4236.00
2019-06-10T08:21:34.043Z,4048.00
2019-06-10T08:22:39.852Z,3964.00
2019-06-10T08:23:36.903Z,4212.00
2019-06-10T08:24:35.265Z,4296.00
2019-06-10T08:25:34.018Z,3800.00
2019-06-10T08:26:35.295Z,4132.00
2019-06-10T08:27:33.976Z,4228.00
2019-06-10T08:28:35.440Z,3816.00
2019-06-10T08:29:33.966Z,3688.00
2019-06-10T08:30:33.961Z,3900.00
2019-06-10T08:31:33.950Z,4148.00
2019-06-10T08:32:33.922Z,4512.00
2019-06-10T08:33:33.912Z,4008.00
2019-06-10T08:34:33.922Z,4204.00
2019-06-10T08:35:41.958Z,3836.00
2019-06-10T08:36:36.208Z,4276.00
2019-06-10T08:37:33.866Z,4332.00
2019-06-10T08:38:33.863Z,4272.00
2019-06-10T08:39:33.847Z,4152.00
2019-06-10T08:40:33.842Z,3888.00
2019-06-10T08:41:33.833Z,4232.00
2019-06-10T08:42:33.832Z,4192.00
2019-06-10T08:43:33.797Z,4248.00
2019-06-10T08:44:33.782Z,4208.00
2019-06-10T08:45:33.778Z,3616.00
2019-06-10T08:46:33.762Z,4236.00
2019-06-10T08:47:33.758Z,4280.00
2019-06-10T08:48:33.754Z,4132.00
2019-06-10T08:49:33.730Z,4280.00
2019-06-10T08:50:33.906Z,3884.00
2019-06-10T08:51:33.706Z,3804.00
2019-06-10T08:52:49.556Z,4004.00
2019-06-10T08:53:34.702Z,3860.00
2019-06-10T08:54:33.678Z,4100.00
2019-06-10T08:55:33.666Z,4288.00
2019-06-10T08:56:33.670Z,4332.00
2019-06-10T08:57:33.640Z,4096.00
2019-06-10T08:58:33.634Z,4296.00
2019-06-10T08:59:33.660Z,4452.00
2019-06-10T09:00:33.806Z,4408.00
2019-06-10T09:01:33.650Z,4256.00
2019-06-10T09:02:33.590Z,4584.00
2019-06-10T09:03:33.578Z,4532.00
2019-06-10T09:04:33.566Z,4668.00
2019-06-10T09:05:33.578Z,4608.00
2019-06-10T09:06:33.554Z,4528.00
2019-06-10T09:07:33.534Z,4492.00
2019-06-10T09:08:33.522Z,4376.00
2019-06-10T09:09:33.690Z,4248.00
2019-06-10T09:10:33.983Z,4632.00
2019-06-10T09:11:33.498Z,4652.00
2019-06-10T09:12:36.528Z,4620.00
2019-06-10T09:13:33.932Z,4640.00
2019-06-10T09:14:33.461Z,4624.00
2019-06-10T09:15:33.446Z,4524.00
2019-06-10T09:16:33.450Z,4796.00
2019-06-10T09:17:33.954Z,4252.00
2019-06-10T09:18:34.702Z,4584.00
2019-06-10T09:19:33.447Z,4672.00
2019-06-10T09:20:33.385Z,4708.00
2019-06-10T09:21:33.378Z,4972.00
2019-06-10T09:22:33.405Z,4632.00
2019-06-10T09:23:33.384Z,4720.00
2019-06-10T09:24:33.353Z,4700.00
2019-06-10T09:25:33.566Z,4544.00
2019-06-10T09:26:33.893Z,4388.00
2019-06-10T09:27:33.325Z,4364.00
2019-06-10T09:28:33.314Z,4300.00
2019-06-10T09:29:33.290Z,4388.00
2019-06-10T09:30:33.527Z,4488.00
2019-06-10T09:31:33.321Z,4344.00
2019-06-10T09:32:33.258Z,4296.00
2019-06-10T09:33:33.327Z,4116.00
2019-06-10T09:34:33.266Z,4020.00
2019-06-10T09:35:33.242Z,3944.00
2019-06-10T09:36:33.213Z,3848.00
2019-06-10T09:37:33.202Z,3596.00
2019-06-10T09:38:33.745Z,3364.00
2019-06-10T09:39:33.191Z,3284.00
2019-06-10T09:40:33.908Z,3204.00
2019-06-10T09:41:40.126Z,3260.00
2019-06-10T09:42:34.149Z,3052.00
2019-06-10T09:43:33.525Z,3256.00
2019-06-10T09:44:33.437Z,2916.00
2019-06-10T09:45:33.368Z,3316.00
2019-06-10T09:46:33.320Z,3620.00
2019-06-10T09:47:34.718Z,3624.00
2019-06-10T09:48:33.757Z,4024.00
2019-06-10T09:49:33.657Z,4116.00
2019-06-10T09:50:33.438Z,4576.00
2019-06-10T09:51:33.065Z,3684.00
2019-06-10T09:52:33.038Z,3736.00
2019-06-10T09:53:41.188Z,4576.00
2019-06-10T09:54:34.017Z,4372.00
2019-06-10T09:55:33.026Z,4012.00
2019-06-10T09:56:33.193Z,4596.00
2019-06-10T09:57:33.007Z,4500.00
2019-06-10T09:58:33.239Z,4704.00
2019-06-10T09:59:32.958Z,4288.00
2019-06-10T10:00:33.238Z,3900.00
2019-06-10T10:01:32.939Z,4224.00
2019-06-10T10:02:33.225Z,4364.00
2019-06-10T10:03:33.310Z,4228.00
2019-06-10T10:04:35.148Z,4648.00
2019-06-10T10:05:33.825Z,4676.00
2019-06-10T10:06:32.892Z,4800.00
2019-06-10T10:07:32.894Z,4800.00
2019-06-10T10:08:32.890Z,4736.00
2019-06-10T10:09:36.715Z,4892.00
2019-06-10T10:10:32.892Z,4876.00
2019-06-10T10:11:32.822Z,4252.00
2019-06-10T10:12:32.866Z,4576.00
2019-06-10T10:13:35.386Z,4980.00
2019-06-10T10:14:33.530Z,5156.00
2019-06-10T10:15:34.552Z,5188.00
2019-06-10T10:16:34.043Z,5180.00
2019-06-10T10:17:33.393Z,4964.00
2019-06-10T10:18:33.640Z,4984.00
2019-06-10T10:19:32.749Z,5152.00
2019-06-10T10:20:34.100Z,5316.00
2019-06-10T10:21:32.717Z,5052.00
2019-06-10T10:22:33.560Z,4984.00
2019-06-10T10:23:48.410Z,5340.00
2019-06-10T10:24:34.202Z,5096.00
2019-06-10T10:25:33.394Z,4912.00
2019-06-10T10:26:32.685Z,4924.00
2019-06-10T10:27:32.680Z,4748.00
2019-06-10T10:28:33.454Z,4164.00
2019-06-10T10:29:32.962Z,4052.00
2019-06-10T10:30:33.325Z,3996.00
2019-06-10T10:31:32.636Z,3848.00
2019-06-10T10:32:33.393Z,3888.00
2019-06-10T10:33:33.346Z,4432.00
2019-06-10T10:34:33.400Z,4596.00
2019-06-10T10:35:32.740Z,4600.00
2019-06-10T10:36:33.533Z,4708.00
2019-06-10T10:37:32.854Z,4952.00
2019-06-10T10:38:34.478Z,4568.00
2019-06-10T10:39:32.816Z,5252.00
2019-06-10T10:40:32.782Z,5192.00
2019-06-10T10:41:32.502Z,5132.00
2019-06-10T10:42:42.684Z,4856.00
2019-06-10T10:43:37.466Z,4760.00
2019-06-10T10:44:32.470Z,4584.00
2019-06-10T10:45:32.454Z,4748.00
2019-06-10T10:46:32.648Z,4628.00
2019-06-10T10:47:33.589Z,4676.00
2019-06-10T10:48:33.513Z,4848.00
2019-06-10T10:49:32.708Z,4784.00
2019-06-10T10:50:34.174Z,4796.00
2019-06-10T10:51:32.688Z,4852.00
2019-06-10T10:52:33.027Z,5016.00
2019-06-10T10:53:32.917Z,5136.00
2019-06-10T10:54:36.503Z,4856.00
2019-06-10T10:55:32.888Z,5244.00
2019-06-10T10:56:33.963Z,5064.00
2019-06-10T10:57:33.071Z,5108.00
2019-06-10T10:58:33.246Z,5068.00
2019-06-10T10:59:33.259Z,4560.00
2019-06-10T11:00:37.329Z,4644.00
2019-06-10T11:01:33.500Z,4912.00
2019-06-10T11:02:32.362Z,4900.00
2019-06-10T11:03:33.607Z,4952.00
2019-06-10T11:04:32.843Z,4952.00
2019-06-10T11:05:33.283Z,4952.00
2019-06-10T11:06:32.404Z,4840.00
2019-06-10T11:07:33.989Z,4816.00
2019-06-10T11:08:33.371Z,4688.00
2019-06-10T11:09:33.115Z,4556.00
2019-06-10T11:10:33.026Z,4560.00
2019-06-10T11:11:33.291Z,4452.00
2019-06-10T11:12:33.199Z,4500.00
2019-06-10T11:13:33.358Z,4476.00
2019-06-10T11:14:34.003Z,4404.00
2019-06-10T11:15:33.792Z,4308.00
2019-06-10T11:16:33.026Z,3860.00
2019-06-10T11:17:33.640Z,3544.00
2019-06-10T11:18:33.977Z,4064.00
2019-06-10T11:19:32.925Z,4400.00
2019-06-10T11:20:33.633Z,4592.00
2019-06-10T11:21:33.081Z,4064.00
2019-06-10T11:22:32.839Z,4280.00
2019-06-10T11:23:33.669Z,4552.00
2019-06-10T11:24:37.671Z,4652.00
2019-06-10T11:25:33.293Z,4572.00
2019-06-10T11:26:32.934Z,4452.00
2019-06-10T11:27:33.226Z,4332.00
2019-06-10T11:28:32.324Z,4292.00
2019-06-10T11:29:32.925Z,4264.00
2019-06-10T11:30:32.488Z,4316.00
2019-06-10T11:31:32.820Z,3624.00
2019-06-10T11:32:32.801Z,4092.00
2019-06-10T11:33:32.890Z,3816.00
2019-06-10T11:34:33.261Z,4352.00
2019-06-10T11:35:31.906Z,4704.00
2019-06-10T11:36:32.726Z,3820.00
2019-06-10T11:37:31.893Z,3312.00
2019-06-10T11:38:32.927Z,3388.00
2019-06-10T11:39:33.298Z,3260.00
2019-06-10T11:40:34.068Z,3008.00
2019-06-10T11:41:32.453Z,3008.00
2019-06-10T11:42:33.434Z,3016.00
2019-06-10T11:43:33.183Z,3396.00
2019-06-10T11:44:33.868Z,4200.00
2019-06-10T11:45:32.842Z,4644.00
2019-06-10T11:46:33.061Z,4512.00
2019-06-10T11:47:33.046Z,3804.00
2019-06-10T11:48:32.822Z,3116.00
2019-06-10T11:49:31.753Z,4336.00
2019-06-10T11:50:33.422Z,3720.00
2019-06-10T11:51:31.733Z,4136.00
2019-06-10T11:52:33.506Z,3496.00
2019-06-10T11:53:34.128Z,2856.00
2019-06-10T11:54:34.064Z,2752.00
2019-06-10T11:55:33.254Z,2964.00
2019-06-10T11:56:33.648Z,2900.00
2019-06-10T11:57:32.945Z,2644.00
2019-06-10T11:58:33.358Z,2720.00
2019-06-10T11:59:32.734Z,3008.00
2019-06-10T12:00:33.044Z,4748.00
2019-06-10T12:01:31.626Z,4560.00
2019-06-10T12:02:32.963Z,3732.00
2019-06-10T12:03:31.601Z,2944.00
2019-06-10T12:04:31.617Z,3168.00
2019-06-10T12:05:32.675Z,4588.00
2019-06-10T12:06:33.987Z,4552.00
2019-06-10T12:07:33.209Z,4468.00
2019-06-10T12:08:32.848Z,4500.00
2019-06-10T12:09:33.363Z,4516.00
2019-06-10T12:10:33.020Z,4496.00
2019-06-10T12:11:34.272Z,4712.00
2019-06-10T12:12:33.723Z,4916.00
2019-06-10T12:13:34.219Z,4288.00
2019-06-10T12:14:33.107Z,3364.00
2019-06-10T12:15:45.583Z,3596.00
2019-06-10T12:17:15.457Z,4336.00
2019-06-10T12:17:42.946Z,5228.00
2019-06-10T12:18:33.305Z,4032.00
2019-06-10T12:19:33.539Z,3592.00
2019-06-10T12:20:33.392Z,5288.00
2019-06-10T12:21:33.037Z,5476.00
2019-06-10T12:22:33.065Z,5440.00
2019-06-10T12:23:33.639Z,5600.00
2019-06-10T12:24:33.211Z,5940.00
2019-06-10T12:25:36.778Z,6168.00
2019-06-10T12:26:33.512Z,5636.00
2019-06-10T12:27:32.820Z,4760.00
2019-06-10T12:28:32.618Z,4652.00
2019-06-10T12:29:31.319Z,4900.00
2019-06-10T12:30:34.253Z,5644.00
2019-06-10T12:31:33.697Z,4976.00